Flight Track Log - Related Links

Times and Time Zones

All times are in EDT time to prevent confusion due to time zone crossing. See the UAL4680 flight status page for this flight to view local times or setup timezone preferences in your user account.

Time Position Orientation Groundspeed Altitude Reporting Facility
EDT Latitude Longitude Course Direction KTS MPH feet Rate Location/Type
Sat 02:26:25 PM 25.6303 -100.6289 74° East 551 634 37,000  Level Houston Center
Sat 02:27:26 PM 25.6731 -100.4653 74° East 553 636 37,000  Level Houston Center
Sat 02:28:28 PM 25.7172 -100.3039 73° East 553 636 37,000  Level Houston Center
Sat 02:29:30 PM 25.7647 -100.1456 72° East 551 634 37,000  Level Houston Center
Sat 02:30:32 PM 25.8539 -100.0072 54° Northeast 556 640 37,000  Level Houston Center
Sat 02:31:33 PM 25.9569 -99.8825 47° Northeast 553 636 37,000  Level Houston Center
Sat 02:32:35 PM 26.0817 -99.7303 48° Northeast 554 638 37,000  Level Houston Center
Sat 02:33:37 PM 26.1839 -99.6028 48° Northeast 554 638 37,000  Level Houston Center
Sat 02:34:39 PM 26.2881 -99.4767 47° Northeast 554 638 37,000  Level Houston Center
Sat 02:35:40 PM 26.4006 -99.3597 43° Northeast 555 639 37,000  Level Houston Center
Sat 02:36:42 PM 26.5156 -99.2475 41° Northeast 553 636 37,000  Level Houston Center
Sat 02:37:44 PM 26.6303 -99.1358 41° Northeast 550 633 37,000  Level Houston Center
Sat 02:38:46 PM 26.7656 -99.0031 41° Northeast 543 625 37,000  Level Houston Center
Sat 02:39:47 PM 26.8772 -98.8925 41° Northeast 539 620 37,000  Level Houston Center
Sat 02:40:49 PM 26.9883 -98.7825 41° Northeast 537 618 37,000  Level Houston Center
Sat 02:41:51 PM 27.0981 -98.6728 42° Northeast 535 616 37,000  Level Houston Center
Sat 02:42:53 PM 27.2086 -98.5628 41° Northeast 536 617 37,000  Level Houston Center
Sat 02:43:55 PM 27.3200 -98.4522 41° Northeast 538 619 37,000  Level Houston Center
Sat 02:44:56 PM 27.4531 -98.3183 42° Northeast 539 620 37,000  Level Houston Center
Sat 02:45:58 PM 27.5642 -98.2067 42° Northeast 538 619 37,000  Level Houston Center
Sat 02:47:00 PM 27.6753 -98.0947 42° Northeast 537 618 37,000  Level Houston Center
Sat 02:48:01 PM 27.7875 -97.9814 42° Northeast 542 624 37,000  Level Houston Center
Sat 02:49:03 PM 27.8997 -97.8675 42° Northeast 543 625 37,000  Level Houston Center
Sat 02:50:05 PM 28.0308 -97.7378 41° Northeast 542 624 37,000  Level Houston Center
Sat 02:51:07 PM 28.1425 -97.6225 42° Northeast 543 625 37,000  Level Houston Center
Sat 02:52:08 PM 28.2550 -97.5097 41° Northeast 541 623 37,000  Level Houston Center
Sat 02:53:10 PM 28.3667 -97.3953 42° Northeast 541 623 37,000 -48 Level Houston Center
Sat 02:54:12 PM 28.4778 -97.2800 42° Northeast 543 625 36,900 -927 Descending Houston Center
Sat 02:55:13 PM 28.5906 -97.1644 42° Northeast 544 626 35,100 -2,634 Descending Houston Center
Sat 02:56:15 PM 28.7222 -97.0308 42° Northeast 533 613 31,500 -3,242 Descending Houston Center
Sat 02:57:17 PM 28.8308 -96.9161 43° Northeast 534 615 28,400 -2,903 Descending Houston Center
Sat 02:58:19 PM 28.9397 -96.8028 42° Northeast 534 615 25,500 -2,732 Descending Houston Center
Sat 02:59:20 PM 29.0439 -96.6939 42° Northeast 514 592 22,800 -2,585 Descending Houston Center
Sat 03:00:22 PM 29.1408 -96.5917 43° Northeast 489 563 20,200 -2,488 Descending Houston Center
Sat 03:01:23 PM 29.2356 -96.4933 42° Northeast 471 542 17,700 -2,634 Descending Houston Center
Sat 03:02:25 PM 29.3378 -96.3864 42° Northeast 427 491 14,800 -2,732 Descending Houston Center
Sat 03:03:26 PM 29.4175 -96.3036 42° Northeast 397 457 12,100 -2,341 Descending Houston Center
Sat 03:04:28 PM 29.4903 -96.2250 43° Northeast 371 427 10,000 -1,016 Descending Houston Center
Sat 03:05:30 PM 29.5550 -96.1503 45° Northeast 339 390 10,000 -49 Level Houston Center
Sat 03:06:31 PM 29.5994 -96.0569 61° Northeast 334 384 9,900 -49 Descending Houston Center
Sat 03:07:32 PM 29.6664 -95.9811 45° Northeast 331 381 9,900 -488 Level Houston Center
Sat 03:08:34 PM 29.7331 -95.9339 32° Northeast 285 328 8,900 -1,220 Descending Houston Center
Sat 03:09:35 PM 29.7919 -95.8811 38° Northeast 271 312 7,400 -927 Descending Houston Center
Sat 03:10:37 PM 29.8461 -95.8344 37° Northeast 251 289 7,000 -439 Descending Houston Center
Sat 03:11:38 PM 29.8892 -95.7836 46° Northeast 239 275 6,500 -1,082 Descending Houston Center
Sat 03:12:39 PM 29.9211 -95.7039 65° Northeast 230 265 4,800 -1,366 Descending Houston Center
Sat 03:13:41 PM 29.9469 -95.6394 65° Northeast 224 258 3,700 -812 Descending Houston Center
Sat 03:14:52 PM 29.9753 -95.5614 67° East 213 245 3,000 -439 Descending Houston Center
Sat 03:15:44 PM 29.9939 -95.5175 64° Northeast 210 242 2,800 -689 Descending Houston Center
Sat 03:16:54 PM 29.9922 -95.4483 92° East 169 194 1,600 -885 Descending Houston Center
Sat 03:17:46 PM 29.9947 -95.4117 85° East 171 197 1,000 -632 Descending Houston Center
Sat 03:18:48 PM 29.9933 -95.3681 92° East 154 177 400 -581 Descending Houston Center
Sat 03:20:00 PM 29.9833 -95.3333 49° Northeast  Level FlightAware Approximate
Sat 03:27:00 PM 29.9844 -95.3414 49° Northeast  Level Estimated

Login

Don't have an account? Register now (free) for customized features, flight alerts, and more!